sensor_id;sensor_type;location;lat;lon;timestamp;temperature;humidity
15013;DHT22;7603;49.432;11.418;2023-11-22T00:00:09;4.00;99.90
15013;DHT22;7603;49.432;11.418;2023-11-22T00:02:35;4.00;99.90
15013;DHT22;7603;49.432;11.418;2023-11-22T00:05:01;4.00;99.90
15013;DHT22;7603;49.432;11.418;2023-11-22T00:07:28;4.00;99.90
15013;DHT22;7603;49.432;11.418;2023-11-22T00:09:55;4.00;99.90
15013;DHT22;7603;49.432;11.418;2023-11-22T00:12:20;4.00;99.90
15013;DHT22;7603;49.432;11.418;2023-11-22T00:14:46;4.00;99.90
15013;DHT22;7603;49.432;11.418;2023-11-22T00:17:12;4.00;99.90
15013;DHT22;7603;49.432;11.418;2023-11-22T00:19:38;4.00;99.90
15013;DHT22;7603;49.432;11.418;2023-11-22T00:22:04;3.90;99.90
15013;DHT22;7603;49.432;11.418;2023-11-22T00:24:37;4.00;99.90
15013;DHT22;7603;49.432;11.418;2023-11-22T00:27:02;4.00;99.90
15013;DHT22;7603;49.432;11.418;2023-11-22T00:29:28;4.00;99.90
15013;DHT22;7603;49.432;11.418;2023-11-22T00:31:54;4.10;99.90
15013;DHT22;7603;49.432;11.418;2023-11-22T00:34:19;4.00;99.90
15013;DHT22;7603;49.432;11.418;2023-11-22T00:36:45;3.90;99.90
15013;DHT22;7603;49.432;11.418;2023-11-22T00:39:11;3.90;99.90
15013;DHT22;7603;49.432;11.418;2023-11-22T00:41:38;3.90;99.90
15013;DHT22;7603;49.432;11.418;2023-11-22T00:44:04;3.90;99.90
15013;DHT22;7603;49.432;11.418;2023-11-22T00:46:33;3.80;99.90
15013;DHT22;7603;49.432;11.418;2023-11-22T00:48:59;3.80;99.90
15013;DHT22;7603;49.432;11.418;2023-11-22T00:51:25;3.90;99.90
15013;DHT22;7603;49.432;11.418;2023-11-22T00:53:50;3.80;99.90
15013;DHT22;7603;49.432;11.418;2023-11-22T00:56:16;3.80;99.90
15013;DHT22;7603;49.432;11.418;2023-11-22T00:58:42;3.80;99.90
15013;DHT22;7603;49.432;11.418;2023-11-22T01:01:08;3.80;99.90
15013;DHT22;7603;49.432;11.418;2023-11-22T01:03:34;3.70;99.90
15013;DHT22;7603;49.432;11.418;2023-11-22T01:06:01;3.70;99.90
15013;DHT22;7603;49.432;11.418;2023-11-22T01:08:26;3.70;99.90
15013;DHT22;7603;49.432;11.418;2023-11-22T01:10:52;3.70;99.90
15013;DHT22;7603;49.432;11.418;2023-11-22T01:13:18;3.60;99.90
15013;DHT22;7603;49.432;11.418;2023-11-22T01:15:43;3.60;99.90
15013;DHT22;7603;49.432;11.418;2023-11-22T01:18:10;3.50;99.90
15013;DHT22;7603;49.432;11.418;2023-11-22T01:20:35;3.50;99.90
15013;DHT22;7603;49.432;11.418;2023-11-22T01:23:01;3.50;99.90
15013;DHT22;7603;49.432;11.418;2023-11-22T01:25:27;3.40;99.90
15013;DHT22;7603;49.432;11.418;2023-11-22T01:27:53;3.40;99.90
15013;DHT22;7603;49.432;11.418;2023-11-22T01:30:19;3.30;99.90
15013;DHT22;7603;49.432;11.418;2023-11-22T01:32:44;3.30;99.90
15013;DHT22;7603;49.432;11.418;2023-11-22T01:35:10;3.20;99.90
15013;DHT22;7603;49.432;11.418;2023-11-22T01:37:36;3.20;99.90
15013;DHT22;7603;49.432;11.418;2023-11-22T01:40:02;3.10;99.90
15013;DHT22;7603;49.432;11.418;2023-11-22T01:42:29;3.10;99.90
15013;DHT22;7603;49.432;11.418;2023-11-22T01:44:54;3.10;99.90
15013;DHT22;7603;49.432;11.418;2023-11-22T01:47:21;3.00;99.90
15013;DHT22;7603;49.432;11.418;2023-11-22T01:49:46;3.00;99.90
15013;DHT22;7603;49.432;11.418;2023-11-22T01:52:13;2.90;99.90
15013;DHT22;7603;49.432;11.418;2023-11-22T01:54:39;2.90;99.90
15013;DHT22;7603;49.432;11.418;2023-11-22T01:57:05;2.90;99.90
15013;DHT22;7603;49.432;11.418;2023-11-22T01:59:33;2.80;99.90
15013;DHT22;7603;49.432;11.418;2023-11-22T02:01:59;2.80;99.90
15013;DHT22;7603;49.432;11.418;2023-11-22T02:04:25;2.90;99.90
15013;DHT22;7603;49.432;11.418;2023-11-22T02:06:51;2.80;99.90
15013;DHT22;7603;49.432;11.418;2023-11-22T02:09:16;2.80;99.90
15013;DHT22;7603;49.432;11.418;2023-11-22T02:11:43;2.80;99.90
15013;DHT22;7603;49.432;11.418;2023-11-22T02:14:11;2.70;99.90
15013;DHT22;7603;49.432;11.418;2023-11-22T02:16:37;2.70;99.90
15013;DHT22;7603;49.432;11.418;2023-11-22T02:19:06;2.60;99.90
15013;DHT22;7603;49.432;11.418;2023-11-22T02:21:33;2.50;99.90
15013;DHT22;7603;49.432;11.418;2023-11-22T02:23:58;2.50;99.90
15013;DHT22;7603;49.432;11.418;2023-11-22T02:26:24;2.50;99.90
15013;DHT22;7603;49.432;11.418;2023-11-22T02:28:50;2.50;99.90
15013;DHT22;7603;49.432;11.418;2023-11-22T02:31:16;2.40;99.90
15013;DHT22;7603;49.432;11.418;2023-11-22T02:33:42;2.40;99.90
15013;DHT22;7603;49.432;11.418;2023-11-22T02:36:09;2.40;99.90
15013;DHT22;7603;49.432;11.418;2023-11-22T02:38:38;2.30;99.90
15013;DHT22;7603;49.432;11.418;2023-11-22T02:41:03;2.20;99.90
15013;DHT22;7603;49.432;11.418;2023-11-22T02:43:30;2.10;99.90
15013;DHT22;7603;49.432;11.418;2023-11-22T02:45:55;2.00;99.90
15013;DHT22;7603;49.432;11.418;2023-11-22T02:48:21;1.90;99.90
15013;DHT22;7603;49.432;11.418;2023-11-22T02:50:48;1.80;99.90
15013;DHT22;7603;49.432;11.418;2023-11-22T02:53:14;1.60;99.90
15013;DHT22;7603;49.432;11.418;2023-11-22T02:55:40;1.50;99.90
15013;DHT22;7603;49.432;11.418;2023-11-22T02:58:06;1.40;99.90
15013;DHT22;7603;49.432;11.418;2023-11-22T03:00:31;1.30;99.90
15013;DHT22;7603;49.432;11.418;2023-11-22T03:03:00;1.30;99.90
15013;DHT22;7603;49.432;11.418;2023-11-22T03:05:25;1.30;99.90
15013;DHT22;7603;49.432;11.418;2023-11-22T03:07:51;1.30;99.90
15013;DHT22;7603;49.432;11.418;2023-11-22T03:10:17;1.40;99.90
15013;DHT22;7603;49.432;11.418;2023-11-22T03:12:43;1.40;99.90
15013;DHT22;7603;49.432;11.418;2023-11-22T03:15:09;1.50;99.90
15013;DHT22;7603;49.432;11.418;2023-11-22T03:17:36;1.60;99.90
15013;DHT22;7603;49.432;11.418;2023-11-22T03:20:04;1.60;99.90
15013;DHT22;7603;49.432;11.418;2023-11-22T03:22:34;1.70;99.90
15013;DHT22;7603;49.432;11.418;2023-11-22T03:25:02;1.80;99.90
15013;DHT22;7603;49.432;11.418;2023-11-22T03:27:28;1.80;99.90
15013;DHT22;7603;49.432;11.418;2023-11-22T03:29:53;1.90;99.90
15013;DHT22;7603;49.432;11.418;2023-11-22T03:32:19;1.90;99.90
15013;DHT22;7603;49.432;11.418;2023-11-22T03:34:44;2.00;99.90
15013;DHT22;7603;49.432;11.418;2023-11-22T03:37:10;2.00;99.90
15013;DHT22;7603;49.432;11.418;2023-11-22T03:39:36;2.00;99.90
15013;DHT22;7603;49.432;11.418;2023-11-22T03:42:02;2.00;99.90
15013;DHT22;7603;49.432;11.418;2023-11-22T03:44:27;2.00;99.90
15013;DHT22;7603;49.432;11.418;2023-11-22T03:46:54;2.10;99.90
15013;DHT22;7603;49.432;11.418;2023-11-22T03:49:20;2.00;99.90
15013;DHT22;7603;49.432;11.418;2023-11-22T03:51:48;2.00;99.90
15013;DHT22;7603;49.432;11.418;2023-11-22T03:54:13;2.00;99.90
15013;DHT22;7603;49.432;11.418;2023-11-22T03:56:39;1.90;99.90
15013;DHT22;7603;49.432;11.418;2023-11-22T03:59:05;1.90;99.90
15013;DHT22;7603;49.432;11.418;2023-11-22T04:01:31;1.80;99.90
15013;DHT22;7603;49.432;11.418;2023-11-22T04:03:56;1.70;99.90
15013;DHT22;7603;49.432;11.418;2023-11-22T04:06:22;1.70;99.90
15013;DHT22;7603;49.432;11.418;2023-11-22T04:08:48;1.70;99.90
15013;DHT22;7603;49.432;11.418;2023-11-22T04:11:15;1.70;99.90
15013;DHT22;7603;49.432;11.418;2023-11-22T04:13:45;1.70;99.90
15013;DHT22;7603;49.432;11.418;2023-11-22T04:16:10;1.80;99.90
15013;DHT22;7603;49.432;11.418;2023-11-22T04:18:40;1.80;99.90
15013;DHT22;7603;49.432;11.418;2023-11-22T04:21:06;1.80;99.90
15013;DHT22;7603;49.432;11.418;2023-11-22T04:23:32;1.90;99.90
15013;DHT22;7603;49.432;11.418;2023-11-22T04:26:01;1.90;99.90
15013;DHT22;7603;49.432;11.418;2023-11-22T04:28:27;1.90;99.90
15013;DHT22;7603;49.432;11.418;2023-11-22T04:30:54;2.00;99.90
15013;DHT22;7603;49.432;11.418;2023-11-22T04:33:20;2.00;99.90
15013;DHT22;7603;49.432;11.418;2023-11-22T04:35:49;2.00;99.90
15013;DHT22;7603;49.432;11.418;2023-11-22T04:38:14;2.00;99.90
15013;DHT22;7603;49.432;11.418;2023-11-22T04:40:40;2.00;99.90
15013;DHT22;7603;49.432;11.418;2023-11-22T04:43:08;2.00;99.90
15013;DHT22;7603;49.432;11.418;2023-11-22T04:45:33;1.90;99.90
15013;DHT22;7603;49.432;11.418;2023-11-22T04:48:00;1.90;99.90
15013;DHT22;7603;49.432;11.418;2023-11-22T04:50:25;1.80;99.90
15013;DHT22;7603;49.432;11.418;2023-11-22T04:52:51;1.80;99.90
15013;DHT22;7603;49.432;11.418;2023-11-22T04:55:17;1.80;99.90
15013;DHT22;7603;49.432;11.418;2023-11-22T04:57:45;1.80;99.90
15013;DHT22;7603;49.432;11.418;2023-11-22T05:00:11;1.80;99.90
15013;DHT22;7603;49.432;11.418;2023-11-22T05:02:37;1.80;99.90
15013;DHT22;7603;49.432;11.418;2023-11-22T05:05:03;1.70;99.90
15013;DHT22;7603;49.432;11.418;2023-11-22T05:07:29;1.70;99.90
15013;DHT22;7603;49.432;11.418;2023-11-22T05:09:55;1.70;99.90
15013;DHT22;7603;49.432;11.418;2023-11-22T05:12:20;1.70;99.90
15013;DHT22;7603;49.432;11.418;2023-11-22T05:14:46;1.70;99.90
15013;DHT22;7603;49.432;11.418;2023-11-22T05:17:12;1.70;99.90
15013;DHT22;7603;49.432;11.418;2023-11-22T05:19:38;1.70;99.90
15013;DHT22;7603;49.432;11.418;2023-11-22T05:22:04;1.70;99.90
15013;DHT22;7603;49.432;11.418;2023-11-22T05:24:30;1.80;99.90
15013;DHT22;7603;49.432;11.418;2023-11-22T05:26:55;1.80;99.90
15013;DHT22;7603;49.432;11.418;2023-11-22T05:29:21;1.90;99.90
15013;DHT22;7603;49.432;11.418;2023-11-22T05:31:47;1.90;99.90
15013;DHT22;7603;49.432;11.418;2023-11-22T05:34:12;1.90;99.90
15013;DHT22;7603;49.432;11.418;2023-11-22T05:36:38;1.90;99.90
15013;DHT22;7603;49.432;11.418;2023-11-22T05:39:04;2.00;99.90
15013;DHT22;7603;49.432;11.418;2023-11-22T05:41:30;2.00;99.90
15013;DHT22;7603;49.432;11.418;2023-11-22T05:43:55;2.10;99.90
15013;DHT22;7603;49.432;11.418;2023-11-22T05:46:24;2.10;99.90
15013;DHT22;7603;49.432;11.418;2023-11-22T05:48:53;2.10;99.90
15013;DHT22;7603;49.432;11.418;2023-11-22T05:51:19;2.10;99.90
15013;DHT22;7603;49.432;11.418;2023-11-22T05:53:45;2.10;99.90
15013;DHT22;7603;49.432;11.418;2023-11-22T05:56:11;2.10;99.90
15013;DHT22;7603;49.432;11.418;2023-11-22T05:58:37;2.00;99.90
15013;DHT22;7603;49.432;11.418;2023-11-22T06:01:04;2.10;99.90
15013;DHT22;7603;49.432;11.418;2023-11-22T06:03:30;1.90;99.90
15013;DHT22;7603;49.432;11.418;2023-11-22T06:05:55;2.00;99.90
15013;DHT22;7603;49.432;11.418;2023-11-22T06:08:23;2.00;99.90
15013;DHT22;7603;49.432;11.418;2023-11-22T06:10:48;1.90;99.90
15013;DHT22;7603;49.432;11.418;2023-11-22T06:13:14;2.00;99.90
15013;DHT22;7603;49.432;11.418;2023-11-22T06:15:40;2.20;99.90
15013;DHT22;7603;49.432;11.418;2023-11-22T06:18:06;2.20;99.90
15013;DHT22;7603;49.432;11.418;2023-11-22T06:20:31;2.10;99.90
15013;DHT22;7603;49.432;11.418;2023-11-22T06:22:57;2.00;99.90
15013;DHT22;7603;49.432;11.418;2023-11-22T06:25:22;2.10;99.90
15013;DHT22;7603;49.432;11.418;2023-11-22T06:27:49;2.10;99.90
15013;DHT22;7603;49.432;11.418;2023-11-22T06:30:14;2.00;99.90
15013;DHT22;7603;49.432;11.418;2023-11-22T06:32:40;2.00;99.90
15013;DHT22;7603;49.432;11.418;2023-11-22T06:35:08;2.00;99.90
15013;DHT22;7603;49.432;11.418;2023-11-22T06:37:35;2.00;99.90
15013;DHT22;7603;49.432;11.418;2023-11-22T06:40:01;2.00;99.90
15013;DHT22;7603;49.432;11.418;2023-11-22T06:42:27;1.90;99.90
15013;DHT22;7603;49.432;11.418;2023-11-22T06:44:53;2.00;99.90
15013;DHT22;7603;49.432;11.418;2023-11-22T06:47:19;2.00;99.90
15013;DHT22;7603;49.432;11.418;2023-11-22T06:49:45;1.90;99.90
15013;DHT22;7603;49.432;11.418;2023-11-22T06:52:10;1.90;99.90
15013;DHT22;7603;49.432;11.418;2023-11-22T06:54:36;1.90;99.90
15013;DHT22;7603;49.432;11.418;2023-11-22T06:57:02;1.90;99.90
15013;DHT22;7603;49.432;11.418;2023-11-22T06:59:28;1.90;99.90
15013;DHT22;7603;49.432;11.418;2023-11-22T07:01:54;1.90;99.90
15013;DHT22;7603;49.432;11.418;2023-11-22T07:04:21;1.90;99.90
15013;DHT22;7603;49.432;11.418;2023-11-22T07:06:48;2.00;99.90
15013;DHT22;7603;49.432;11.418;2023-11-22T07:09:14;2.00;99.90
15013;DHT22;7603;49.432;11.418;2023-11-22T07:11:40;2.00;99.90
15013;DHT22;7603;49.432;11.418;2023-11-22T07:14:05;2.00;99.90
15013;DHT22;7603;49.432;11.418;2023-11-22T07:16:32;2.00;99.90
15013;DHT22;7603;49.432;11.418;2023-11-22T07:18:59;2.00;99.90
15013;DHT22;7603;49.432;11.418;2023-11-22T07:21:25;2.00;99.90
15013;DHT22;7603;49.432;11.418;2023-11-22T07:23:51;2.00;99.90
15013;DHT22;7603;49.432;11.418;2023-11-22T07:26:17;2.00;99.90
15013;DHT22;7603;49.432;11.418;2023-11-22T07:28:44;1.90;99.90
15013;DHT22;7603;49.432;11.418;2023-11-22T07:31:09;1.90;99.90
15013;DHT22;7603;49.432;11.418;2023-11-22T07:33:36;2.00;99.90
15013;DHT22;7603;49.432;11.418;2023-11-22T07:36:04;2.00;99.90
15013;DHT22;7603;49.432;11.418;2023-11-22T07:38:30;2.00;99.90
15013;DHT22;7603;49.432;11.418;2023-11-22T07:40:57;2.00;99.90
15013;DHT22;7603;49.432;11.418;2023-11-22T07:43:22;2.10;99.90
15013;DHT22;7603;49.432;11.418;2023-11-22T07:45:48;2.20;99.90
15013;DHT22;7603;49.432;11.418;2023-11-22T07:48:16;2.30;99.90
15013;DHT22;7603;49.432;11.418;2023-11-22T07:50:42;2.30;99.90
15013;DHT22;7603;49.432;11.418;2023-11-22T07:53:09;2.30;99.90
15013;DHT22;7603;49.432;11.418;2023-11-22T07:55:39;2.30;99.90
15013;DHT22;7603;49.432;11.418;2023-11-22T07:58:05;2.30;99.90
15013;DHT22;7603;49.432;11.418;2023-11-22T08:00:34;2.30;99.90
15013;DHT22;7603;49.432;11.418;2023-11-22T08:03:00;2.30;99.90
15013;DHT22;7603;49.432;11.418;2023-11-22T08:05:29;2.30;99.90
15013;DHT22;7603;49.432;11.418;2023-11-22T08:07:54;2.30;99.90
15013;DHT22;7603;49.432;11.418;2023-11-22T08:10:20;2.30;99.90
15013;DHT22;7603;49.432;11.418;2023-11-22T08:12:47;2.30;99.90
15013;DHT22;7603;49.432;11.418;2023-11-22T08:15:15;2.30;99.90
15013;DHT22;7603;49.432;11.418;2023-11-22T08:17:42;2.20;99.90
15013;DHT22;7603;49.432;11.418;2023-11-22T08:20:10;2.30;99.90
15013;DHT22;7603;49.432;11.418;2023-11-22T08:22:43;2.20;99.90
15013;DHT22;7603;49.432;11.418;2023-11-22T08:25:10;2.20;99.90
15013;DHT22;7603;49.432;11.418;2023-11-22T08:27:41;2.20;99.90
15013;DHT22;7603;49.432;11.418;2023-11-22T08:30:10;2.20;99.90
15013;DHT22;7603;49.432;11.418;2023-11-22T08:32:42;2.20;99.90
15013;DHT22;7603;49.432;11.418;2023-11-22T08:35:08;2.30;99.90
15013;DHT22;7603;49.432;11.418;2023-11-22T08:37:34;2.30;99.90
15013;DHT22;7603;49.432;11.418;2023-11-22T08:40:04;2.30;99.90
15013;DHT22;7603;49.432;11.418;2023-11-22T08:42:30;2.40;99.90
15013;DHT22;7603;49.432;11.418;2023-11-22T08:44:56;2.40;99.90
15013;DHT22;7603;49.432;11.418;2023-11-22T08:47:21;2.40;99.90
15013;DHT22;7603;49.432;11.418;2023-11-22T08:49:47;2.50;99.90
15013;DHT22;7603;49.432;11.418;2023-11-22T08:52:13;2.50;99.90
15013;DHT22;7603;49.432;11.418;2023-11-22T08:54:39;2.60;99.90
15013;DHT22;7603;49.432;11.418;2023-11-22T08:57:05;2.60;99.90
15013;DHT22;7603;49.432;11.418;2023-11-22T08:59:31;2.70;99.90
15013;DHT22;7603;49.432;11.418;2023-11-22T09:02:06;2.70;99.90
15013;DHT22;7603;49.432;11.418;2023-11-22T09:04:33;2.70;99.90
15013;DHT22;7603;49.432;11.418;2023-11-22T09:06:58;2.70;99.90
15013;DHT22;7603;49.432;11.418;2023-11-22T09:09:24;2.80;99.90
15013;DHT22;7603;49.432;11.418;2023-11-22T09:11:58;2.90;99.90
15013;DHT22;7603;49.432;11.418;2023-11-22T09:14:24;2.90;99.90
15013;DHT22;7603;49.432;11.418;2023-11-22T09:16:51;2.90;99.90
15013;DHT22;7603;49.432;11.418;2023-11-22T09:19:24;3.00;99.90
15013;DHT22;7603;49.432;11.418;2023-11-22T09:21:50;3.00;99.90
15013;DHT22;7603;49.432;11.418;2023-11-22T09:24:17;3.00;99.90
15013;DHT22;7603;49.432;11.418;2023-11-22T09:26:43;3.00;99.90
15013;DHT22;7603;49.432;11.418;2023-11-22T09:29:09;3.10;99.90
15013;DHT22;7603;49.432;11.418;2023-11-22T09:31:39;3.10;99.90
15013;DHT22;7603;49.432;11.418;2023-11-22T09:34:05;3.10;99.90
15013;DHT22;7603;49.432;11.418;2023-11-22T09:36:30;3.10;99.90
15013;DHT22;7603;49.432;11.418;2023-11-22T09:38:59;3.20;99.90
15013;DHT22;7603;49.432;11.418;2023-11-22T09:41:25;3.20;99.90
15013;DHT22;7603;49.432;11.418;2023-11-22T09:43:53;3.20;99.90
15013;DHT22;7603;49.432;11.418;2023-11-22T09:46:19;3.20;99.90
15013;DHT22;7603;49.432;11.418;2023-11-22T09:48:48;3.20;99.90
15013;DHT22;7603;49.432;11.418;2023-11-22T09:51:23;3.20;99.90
15013;DHT22;7603;49.432;11.418;2023-11-22T09:53:56;3.20;99.90
15013;DHT22;7603;49.432;11.418;2023-11-22T09:56:26;3.20;99.90
15013;DHT22;7603;49.432;11.418;2023-11-22T09:58:54;3.30;99.90
15013;DHT22;7603;49.432;11.418;2023-11-22T10:01:22;3.40;99.90
15013;DHT22;7603;49.432;11.418;2023-11-22T10:03:48;3.50;99.90
15013;DHT22;7603;49.432;11.418;2023-11-22T10:06:14;3.60;99.90
15013;DHT22;7603;49.432;11.418;2023-11-22T10:08:41;3.60;99.90
15013;DHT22;7603;49.432;11.418;2023-11-22T10:11:07;3.70;99.90
15013;DHT22;7603;49.432;11.418;2023-11-22T10:13:33;3.70;99.90
15013;DHT22;7603;49.432;11.418;2023-11-22T10:16:10;3.70;99.90
15013;DHT22;7603;49.432;11.418;2023-11-22T10:18:42;3.70;99.90
15013;DHT22;7603;49.432;11.418;2023-11-22T10:21:25;3.80;99.90
15013;DHT22;7603;49.432;11.418;2023-11-22T10:23:56;3.70;99.90
15013;DHT22;7603;49.432;11.418;2023-11-22T10:26:24;3.70;99.90
15013;DHT22;7603;49.432;11.418;2023-11-22T10:28:56;3.60;99.90
15013;DHT22;7603;49.432;11.418;2023-11-22T10:31:23;3.60;99.90
15013;DHT22;7603;49.432;11.418;2023-11-22T10:33:50;3.60;99.90
15013;DHT22;7603;49.432;11.418;2023-11-22T10:36:16;3.60;99.90
15013;DHT22;7603;49.432;11.418;2023-11-22T10:38:49;3.60;99.90
15013;DHT22;7603;49.432;11.418;2023-11-22T10:41:16;3.60;99.90
15013;DHT22;7603;49.432;11.418;2023-11-22T10:43:43;3.60;99.90
15013;DHT22;7603;49.432;11.418;2023-11-22T10:46:10;3.60;99.90
15013;DHT22;7603;49.432;11.418;2023-11-22T10:48:38;3.60;99.90
15013;DHT22;7603;49.432;11.418;2023-11-22T10:51:05;3.50;99.90
15013;DHT22;7603;49.432;11.418;2023-11-22T10:53:35;3.60;99.90
15013;DHT22;7603;49.432;11.418;2023-11-22T10:56:17;3.60;99.90
15013;DHT22;7603;49.432;11.418;2023-11-22T10:58:51;3.70;99.90
15013;DHT22;7603;49.432;11.418;2023-11-22T11:01:20;3.70;99.90
15013;DHT22;7603;49.432;11.418;2023-11-22T11:04:08;3.60;99.90
15013;DHT22;7603;49.432;11.418;2023-11-22T11:06:35;3.60;99.90
15013;DHT22;7603;49.432;11.418;2023-11-22T11:09:05;3.50;99.90
15013;DHT22;7603;49.432;11.418;2023-11-22T11:11:33;3.50;99.90
15013;DHT22;7603;49.432;11.418;2023-11-22T11:14:01;3.40;99.90
15013;DHT22;7603;49.432;11.418;2023-11-22T11:16:27;3.40;99.90
15013;DHT22;7603;49.432;11.418;2023-11-22T11:18:57;3.40;99.90
15013;DHT22;7603;49.432;11.418;2023-11-22T11:21:25;3.40;99.90
15013;DHT22;7603;49.432;11.418;2023-11-22T11:23:52;3.40;99.90
15013;DHT22;7603;49.432;11.418;2023-11-22T11:26:21;3.40;99.90
15013;DHT22;7603;49.432;11.418;2023-11-22T11:28:51;3.40;99.90
15013;DHT22;7603;49.432;11.418;2023-11-22T11:31:21;3.50;99.90
15013;DHT22;7603;49.432;11.418;2023-11-22T11:36:29;3.70;99.90
15013;DHT22;7603;49.432;11.418;2023-11-22T11:38:58;3.80;99.90
15013;DHT22;7603;49.432;11.418;2023-11-22T11:41:33;3.90;99.90
15013;DHT22;7603;49.432;11.418;2023-11-22T11:44:02;4.00;99.90
15013;DHT22;7603;49.432;11.418;2023-11-22T11:46:29;4.20;99.90
15013;DHT22;7603;49.432;11.418;2023-11-22T11:48:55;4.30;99.90
15013;DHT22;7603;49.432;11.418;2023-11-22T11:51:25;4.40;99.90
15013;DHT22;7603;49.432;11.418;2023-11-22T11:53:52;4.40;99.90
15013;DHT22;7603;49.432;11.418;2023-11-22T11:56:17;4.60;99.90
15013;DHT22;7603;49.432;11.418;2023-11-22T11:58:45;4.80;99.90
15013;DHT22;7603;49.432;11.418;2023-11-22T12:01:18;4.70;99.90
15013;DHT22;7603;49.432;11.418;2023-11-22T12:03:47;4.80;99.90
15013;DHT22;7603;49.432;11.418;2023-11-22T12:06:17;5.00;99.90
15013;DHT22;7603;49.432;11.418;2023-11-22T12:08:44;5.00;99.90
15013;DHT22;7603;49.432;11.418;2023-11-22T12:11:10;5.00;99.90
15013;DHT22;7603;49.432;11.418;2023-11-22T12:13:37;5.00;99.90
15013;DHT22;7603;49.432;11.418;2023-11-22T12:16:07;5.00;99.90
15013;DHT22;7603;49.432;11.418;2023-11-22T12:18:46;4.90;99.90
15013;DHT22;7603;49.432;11.418;2023-11-22T12:21:14;4.90;99.90
15013;DHT22;7603;49.432;11.418;2023-11-22T12:23:41;4.70;99.90
15013;DHT22;7603;49.432;11.418;2023-11-22T12:26:12;4.70;99.90
15013;DHT22;7603;49.432;11.418;2023-11-22T12:28:44;4.70;99.90
15013;DHT22;7603;49.432;11.418;2023-11-22T12:31:11;4.70;99.90
15013;DHT22;7603;49.432;11.418;2023-11-22T12:33:38;4.70;99.90
15013;DHT22;7603;49.432;11.418;2023-11-22T12:36:06;4.80;99.90
15013;DHT22;7603;49.432;11.418;2023-11-22T12:38:32;4.60;99.90
15013;DHT22;7603;49.432;11.418;2023-11-22T12:40:59;4.60;99.90
15013;DHT22;7603;49.432;11.418;2023-11-22T12:43:27;4.50;99.90
15013;DHT22;7603;49.432;11.418;2023-11-22T12:46:03;4.40;99.90
15013;DHT22;7603;49.432;11.418;2023-11-22T12:48:29;4.40;99.90
15013;DHT22;7603;49.432;11.418;2023-11-22T12:50:56;4.30;99.90
15013;DHT22;7603;49.432;11.418;2023-11-22T12:53:22;4.30;99.90
15013;DHT22;7603;49.432;11.418;2023-11-22T12:55:50;4.40;99.90
15013;DHT22;7603;49.432;11.418;2023-11-22T12:58:17;4.30;99.90
15013;DHT22;7603;49.432;11.418;2023-11-22T13:00:47;4.30;99.90
15013;DHT22;7603;49.432;11.418;2023-11-22T13:03:13;4.30;99.90
15013;DHT22;7603;49.432;11.418;2023-11-22T13:05:40;4.20;99.90
15013;DHT22;7603;49.432;11.418;2023-11-22T13:08:10;4.10;99.90
15013;DHT22;7603;49.432;11.418;2023-11-22T13:10:49;4.10;99.90
15013;DHT22;7603;49.432;11.418;2023-11-22T13:13:25;4.00;99.90
15013;DHT22;7603;49.432;11.418;2023-11-22T13:15:52;3.90;99.90
15013;DHT22;7603;49.432;11.418;2023-11-22T13:18:18;3.90;99.90
15013;DHT22;7603;49.432;11.418;2023-11-22T13:20:44;3.90;99.90
15013;DHT22;7603;49.432;11.418;2023-11-22T13:23:11;4.00;99.90
15013;DHT22;7603;49.432;11.418;2023-11-22T13:25:37;4.00;99.90
15013;DHT22;7603;49.432;11.418;2023-11-22T13:28:03;4.20;99.90
15013;DHT22;7603;49.432;11.418;2023-11-22T13:30:30;4.20;99.90
15013;DHT22;7603;49.432;11.418;2023-11-22T13:32:56;4.20;99.90
15013;DHT22;7603;49.432;11.418;2023-11-22T13:35:25;4.20;99.90
15013;DHT22;7603;49.432;11.418;2023-11-22T13:37:53;4.20;99.90
15013;DHT22;7603;49.432;11.418;2023-11-22T13:40:19;4.10;99.90
15013;DHT22;7603;49.432;11.418;2023-11-22T13:42:51;4.10;99.90
15013;DHT22;7603;49.432;11.418;2023-11-22T13:45:19;4.00;99.90
15013;DHT22;7603;49.432;11.418;2023-11-22T13:47:49;4.10;99.90
15013;DHT22;7603;49.432;11.418;2023-11-22T13:50:17;3.90;99.90
15013;DHT22;7603;49.432;11.418;2023-11-22T13:52:54;3.90;99.90
15013;DHT22;7603;49.432;11.418;2023-11-22T13:55:21;3.80;99.90
15013;DHT22;7603;49.432;11.418;2023-11-22T13:57:52;3.80;99.90
15013;DHT22;7603;49.432;11.418;2023-11-22T14:00:19;3.80;99.90
15013;DHT22;7603;49.432;11.418;2023-11-22T14:02:48;3.80;99.90
15013;DHT22;7603;49.432;11.418;2023-11-22T14:05:14;3.80;99.90
15013;DHT22;7603;49.432;11.418;2023-11-22T14:07:41;3.80;99.90
15013;DHT22;7603;49.432;11.418;2023-11-22T14:10:07;3.80;99.90
15013;DHT22;7603;49.432;11.418;2023-11-22T14:12:34;3.80;99.90
15013;DHT22;7603;49.432;11.418;2023-11-22T14:15:00;3.80;99.90
15013;DHT22;7603;49.432;11.418;2023-11-22T14:17:26;3.80;99.90
15013;DHT22;7603;49.432;11.418;2023-11-22T14:19:52;3.80;99.90
15013;DHT22;7603;49.432;11.418;2023-11-22T14:22:19;3.80;99.90
15013;DHT22;7603;49.432;11.418;2023-11-22T14:24:46;3.80;99.90
15013;DHT22;7603;49.432;11.418;2023-11-22T14:27:12;3.80;99.90
15013;DHT22;7603;49.432;11.418;2023-11-22T14:29:38;3.70;99.90
15013;DHT22;7603;49.432;11.418;2023-11-22T14:32:06;3.70;99.90
15013;DHT22;7603;49.432;11.418;2023-11-22T14:34:32;3.60;99.90
15013;DHT22;7603;49.432;11.418;2023-11-22T14:36:58;3.60;99.90
15013;DHT22;7603;49.432;11.418;2023-11-22T14:39:24;3.50;99.90
15013;DHT22;7603;49.432;11.418;2023-11-22T14:41:49;3.50;99.90
15013;DHT22;7603;49.432;11.418;2023-11-22T14:44:17;3.40;99.90
15013;DHT22;7603;49.432;11.418;2023-11-22T14:46:43;3.60;99.90
15013;DHT22;7603;49.432;11.418;2023-11-22T14:49:09;3.30;99.90
15013;DHT22;7603;49.432;11.418;2023-11-22T14:51:35;3.30;99.90
15013;DHT22;7603;49.432;11.418;2023-11-22T14:54:00;3.20;99.90
15013;DHT22;7603;49.432;11.418;2023-11-22T14:56:26;3.10;99.90
15013;DHT22;7603;49.432;11.418;2023-11-22T14:58:55;3.10;99.90
15013;DHT22;7603;49.432;11.418;2023-11-22T15:01:21;3.00;99.90
15013;DHT22;7603;49.432;11.418;2023-11-22T15:03:49;2.90;99.90
15013;DHT22;7603;49.432;11.418;2023-11-22T15:06:15;2.90;99.90
15013;DHT22;7603;49.432;11.418;2023-11-22T15:08:41;2.80;99.90
15013;DHT22;7603;49.432;11.418;2023-11-22T15:11:07;2.80;99.90
15013;DHT22;7603;49.432;11.418;2023-11-22T15:13:33;2.70;99.90
15013;DHT22;7603;49.432;11.418;2023-11-22T15:15:59;2.70;99.90
15013;DHT22;7603;49.432;11.418;2023-11-22T15:18:25;2.70;99.90
15013;DHT22;7603;49.432;11.418;2023-11-22T15:20:52;2.70;99.90
15013;DHT22;7603;49.432;11.418;2023-11-22T15:23:18;2.70;99.90
15013;DHT22;7603;49.432;11.418;2023-11-22T15:25:45;2.70;99.90
15013;DHT22;7603;49.432;11.418;2023-11-22T15:28:12;2.60;99.90
15013;DHT22;7603;49.432;11.418;2023-11-22T15:30:41;2.70;99.90
15013;DHT22;7603;49.432;11.418;2023-11-22T15:33:06;2.60;99.90
15013;DHT22;7603;49.432;11.418;2023-11-22T15:35:32;2.60;99.90
15013;DHT22;7603;49.432;11.418;2023-11-22T15:37:57;2.60;99.90
15013;DHT22;7603;49.432;11.418;2023-11-22T15:40:24;2.50;99.90
15013;DHT22;7603;49.432;11.418;2023-11-22T15:42:50;2.60;99.90
15013;DHT22;7603;49.432;11.418;2023-11-22T15:45:16;2.50;99.90